Home > Products > Valid Products > TAF

000
FTUS43 KTOP 100521
TAFTOP
TAF
KTOP 100521Z 1006/1106 25005KT P6SM FEW070
     FM101400 19006KT P6SM SCT100
     FM110200 02007KT P6SM SCT100=



000
FTUS43 KTOP 092333
TAFTOP
TAF
KTOP 092333Z 1000/1024 33009KT P6SM SCT100
     FM101400 19006KT P6SM SCT100=



000
FTUS43 KTOP 092333
TAFTOP
TAF
KTOP 092333Z 1000/1024 33009KT P6SM SCT100
     FM101400 19006KT P6SM SCT100=



000
FTUS43 KTOP 091720
TAFTOP
TAF
KTOP 091720Z 0918/1018 32016G25KT P6SM SCT100
     FM100000 32005KT P6SM SCT040 BKN100
     FM101200 15005KT P6SM BKN100=



000
FTUS43 KTOP 091720
TAFTOP
TAF
KTOP 091720Z 0918/1018 32016G25KT P6SM SCT100
     FM100000 32005KT P6SM SCT040 BKN100
     FM101200 15005KT P6SM BKN100=



000
FTUS43 KTOP 091125
TAFTOP
TAF
KTOP 091125Z 0912/1012 32016G25KT P6SM SCT100
     FM100000 32005KT P6SM FEW040 BKN100=



000
FTUS43 KTOP 090539
TAFTOP
TAF
KTOP 090539Z 0906/1006 30011KT P6SM SKC
     FM091400 32016G24KT P6SM SCT040
     FM100000 33010KT P6SM FEW040=



000
FTUS43 KTOP 090539
TAFTOP
TAF
KTOP 090539Z 0906/1006 30011KT P6SM SKC
     FM091400 32016G24KT P6SM SCT040
     FM100000 33010KT P6SM FEW040=



000
FTUS43 KTOP 082320
TAFTOP
TAF
KTOP 082320Z 0900/0924 32022G30KT P6SM BKN050
     FM090100 32016G24KT P6SM SCT040=



000
FTUS43 KTOP 081734
TAFTOP
TAF
KTOP 081734Z 0818/0918 32024G35KT P6SM BKN040
     FM090000 32016G24KT P6SM SCT040=



000
FTUS43 KTOP 081329 AAA
TAFTOP
TAF AMD
KTOP 081329Z 0813/0912 30018G30KT P6SM OVC040
      TEMPO 0813/0815 3SM -SHSN SCT025 OVC040
     FM081500 32026G38KT P6SM SCT025 OVC035
     FM082300 32022G30KT P6SM BKN035
     FM090300 31016G24KT P6SM SCT040=



000
FTUS43 KTOP 081135 CCB
TAFTOP
TAF COR
KTOP 081135Z 0812/0912 30018G30KT P6SM -SHSN SCT025 OVC060
     FM081500 32026G38KT P6SM SCT025 OVC035
     FM082300 32022G30KT P6SM BKN035
     FM090300 31016G24KT P6SM SCT040=



000
FTUS43 KTOP 081135 CCB
TAFTOP
TAF COR
KTOP 081135Z 0812/0912 30018G30KT P6SM -SHSN SCT025 OVC060
     FM081500 32026G38KT P6SM SCT025 OVC035
     FM082300 32022G30KT P6SM BKN035
     FM090300 31016G24KT P6SM SCT040=



000
FTUS43 KTOP 081131 CCA
TAFTOP
TAF COR
KTOP 081131Z 0812/0912 30018G30KT P6SM -SHSN OVC070
     FM081500 32026G38KT P6SM SCT025 OVC035
     FM082300 32022G30KT P6SM BKN035
     FM090300 31016G24KT P6SM SCT040=



000
FTUS43 KTOP 081127
TAFTOP
TAF
KTOP 081127Z 0812/0912 30018G30KT P6SM OVC070
     FM081500 32026G38KT P6SM SCT025 OVC035
     FM082300 32022G30KT P6SM BKN035
     FM090300 31016G24KT P6SM SCT040=



000
FTUS43 KTOP 080535
TAFTOP
TAF
KTOP 080535Z 0806/0906 31015G25KT P6SM BKN100
     FM081300 32021G30KT P6SM SCT050 BKN110
     FM081700 32026G39KT P6SM SCT025 SCT050
     FM090000 33015G25KT P6SM SCT200=



000
FTUS43 KTOP 080535
TAFTOP
TAF
KTOP 080535Z 0806/0906 31015G25KT P6SM BKN100
     FM081300 32021G30KT P6SM SCT050 BKN110
     FM081700 32026G39KT P6SM SCT025 SCT050
     FM090000 33015G25KT P6SM SCT200=



000
FTUS43 KTOP 080049 AAA
TAFTOP
TAF AMD
KTOP 080049Z 0801/0824 31015G23KT P6SM BKN060
      TEMPO 0801/0803 32025G35KT
     FM080600 32018G26KT P6SM SCT020 BKN035
     FM081500 32022G33KT P6SM SCT025 BKN050
     FM081800 32026G37KT P6SM SCT050=



000
FTUS43 KTOP 072323
TAFTOP
TAF
KTOP 072323Z 0800/0824 31015G23KT P6SM BKN060
     FM080600 32018G26KT P6SM SCT020 BKN035
     FM081500 32022G33KT P6SM SCT025 BKN050
     FM081800 32026G37KT P6SM SCT050=



000
FTUS43 KTOP 072323
TAFTOP
TAF
KTOP 072323Z 0800/0824 31015G23KT P6SM BKN060
     FM080600 32018G26KT P6SM SCT020 BKN035
     FM081500 32022G33KT P6SM SCT025 BKN050
     FM081800 32026G37KT P6SM SCT050=



000
FTUS43 KTOP 071739
TAFTOP
TAF
KTOP 071739Z 0718/0818 30015G22KT P6SM BKN120
     FM072000 30019G32KT P6SM SCT120
     FM080000 31015G23KT P6SM BKN060
     FM080600 32018G26KT P6SM SCT020 BKN035
     FM081500 32022G33KT P6SM SCT030=



000
FTUS43 KTOP 071614 AAC
TAFTOP
TAF AMD
KTOP 071614Z 0716/0812 29013KT P6SM SCT150
     FM071900 30020G30KT P6SM SCT090
     FM080000 31016G25KT P6SM BKN060
     FM080700 31018G26KT P6SM SCT020 OVC035=



000
FTUS43 KTOP 071614 AAC
TAFTOP
TAF AMD
KTOP 071614Z 0716/0812 29013KT P6SM SCT150
     FM071900 30020G30KT P6SM SCT090
     FM080000 31016G25KT P6SM BKN060
     FM080700 31018G26KT P6SM SCT020 OVC035=



000
FTUS43 KTOP 071133
TAFTOP
TAF
KTOP 071133Z 0712/0812 27011KT P6SM BKN150
     FM071700 30020G30KT P6SM SCT090
     FM080000 31016G25KT P6SM BKN060
     FM080700 31018G26KT P6SM SCT020 OVC035=



    US Dept of Commerce
    National Oceanic and Atmospheric Administration
    National Weather Service
    1325 East West Highway
    Silver Spring, MD 20910
    Page Author: NWS Internet Services Team
Disclaimer
Information Quality
Credits
Glossary
Privacy Policy
Freedom of Information Act (FOIA)
About Us
Career Opportunities